createdAt,value
2018-04-23T00:00:39.347Z,0.00
2018-04-23T00:01:39.783Z,0.00
2018-04-23T00:02:40.222Z,0.00
2018-04-23T00:03:40.669Z,0.00
2018-04-23T00:04:41.100Z,0.00
2018-04-23T00:05:41.539Z,0.00
2018-04-23T00:06:41.972Z,0.00
2018-04-23T00:07:42.415Z,0.00
2018-04-23T00:08:42.848Z,0.00
2018-04-23T00:09:43.293Z,0.00
2018-04-23T00:10:43.728Z,0.00
2018-04-23T00:11:44.164Z,0.00
2018-04-23T00:12:44.603Z,0.00
2018-04-23T00:13:45.046Z,0.00
2018-04-23T00:14:45.478Z,0.00
2018-04-23T00:15:45.914Z,0.00
2018-04-23T00:16:46.359Z,0.00
2018-04-23T00:17:46.793Z,0.00
2018-04-23T00:18:47.349Z,0.00
2018-04-23T00:19:47.672Z,0.00
2018-04-23T00:20:48.109Z,0.00
2018-04-23T00:21:48.556Z,0.00
2018-04-23T00:22:48.985Z,0.00
2018-04-23T00:23:49.423Z,0.00
2018-04-23T00:24:49.867Z,0.00
2018-04-23T00:25:50.296Z,0.00
2018-04-23T00:26:50.740Z,0.00
2018-04-23T00:27:51.176Z,0.00
2018-04-23T00:28:51.615Z,0.00
2018-04-23T00:29:52.051Z,0.00
2018-04-23T00:30:52.492Z,0.00
2018-04-23T00:31:52.933Z,0.00
2018-04-23T00:32:53.367Z,0.00
2018-04-23T00:33:53.807Z,0.00
2018-04-23T00:34:54.250Z,0.00
2018-04-23T00:35:54.689Z,0.00
2018-04-23T00:36:55.120Z,0.00
2018-04-23T00:37:55.566Z,0.00
2018-04-23T00:38:55.992Z,0.00
2018-04-23T00:39:56.452Z,0.00
2018-04-23T00:40:56.982Z,0.00
2018-04-23T00:41:57.315Z,0.00
2018-04-23T00:42:57.751Z,0.00
2018-04-23T00:43:58.187Z,0.00
2018-04-23T00:44:58.626Z,0.00
2018-04-23T00:45:59.081Z,0.00
2018-04-23T00:46:59.504Z,0.00
2018-04-23T00:47:59.949Z,0.00
2018-04-23T00:49:00.377Z,0.00
2018-04-23T00:50:00.911Z,0.00
2018-04-23T00:51:01.254Z,0.00
2018-04-23T00:52:01.759Z,0.00
2018-04-23T00:53:02.134Z,0.00
2018-04-23T00:54:02.570Z,0.00
2018-04-23T00:55:03.017Z,0.00
2018-04-23T00:56:03.448Z,0.00
2018-04-23T00:57:03.884Z,0.00
2018-04-23T00:58:04.328Z,0.00
2018-04-23T00:59:04.769Z,0.00
2018-04-23T01:00:05.208Z,0.00
2018-04-23T01:01:05.638Z,0.00
2018-04-23T01:02:06.078Z,0.00
2018-04-23T01:03:06.512Z,0.00
2018-04-23T01:04:06.953Z,0.00
2018-04-23T01:05:07.392Z,0.00
2018-04-23T01:06:07.825Z,0.00
2018-04-23T01:07:08.266Z,0.00
2018-04-23T01:08:08.798Z,0.00
2018-04-23T01:09:09.135Z,0.00
2018-04-23T01:10:09.575Z,0.00
2018-04-23T01:11:10.014Z,0.00
2018-04-23T01:12:10.453Z,0.00
2018-04-23T01:13:10.886Z,0.00
2018-04-23T01:14:11.326Z,0.00
2018-04-23T01:15:11.763Z,0.00
2018-04-23T01:16:12.200Z,0.00
2018-04-23T01:17:12.638Z,0.00
2018-04-23T01:18:13.076Z,0.00
2018-04-23T01:19:13.513Z,0.00
2018-04-23T01:20:13.950Z,0.00
2018-04-23T01:21:14.385Z,0.00
2018-04-23T01:22:14.965Z,0.00
2018-04-23T01:23:15.263Z,0.00
2018-04-23T01:24:15.708Z,0.00
2018-04-23T01:25:16.134Z,0.00
2018-04-23T01:26:16.569Z,0.00
2018-04-23T01:27:17.013Z,0.00
2018-04-23T01:28:17.447Z,0.00
2018-04-23T01:29:17.886Z,0.00
2018-04-23T01:30:18.326Z,0.00
2018-04-23T01:31:18.756Z,0.00
2018-04-23T01:32:19.199Z,0.00
2018-04-23T01:33:19.637Z,0.00
2018-04-23T01:34:20.073Z,0.00
2018-04-23T01:35:20.537Z,0.00
2018-04-23T01:36:20.954Z,0.00
2018-04-23T01:37:21.380Z,0.00
2018-04-23T01:38:21.816Z,0.00
2018-04-23T01:39:22.254Z,0.00
2018-04-23T01:40:22.852Z,0.00
2018-04-23T01:41:23.133Z,0.00
2018-04-23T01:42:23.570Z,0.00
2018-04-23T01:43:24.005Z,0.00
2018-04-23T01:44:24.439Z,0.00
2018-04-23T01:45:24.892Z,0.00
2018-04-23T01:46:25.314Z,0.00
2018-04-23T01:47:25.751Z,0.00
2018-04-23T01:48:26.190Z,0.00
2018-04-23T01:49:26.627Z,0.00
2018-04-23T01:50:27.062Z,0.00
2018-04-23T01:51:27.506Z,0.00
2018-04-23T01:52:27.936Z,0.00
2018-04-23T01:53:28.376Z,0.00
2018-04-23T01:54:28.808Z,0.00
2018-04-23T01:55:29.246Z,0.00
2018-04-23T01:56:29.681Z,0.00
2018-04-23T01:57:30.120Z,0.00
2018-04-23T01:58:30.561Z,0.00
2018-04-23T01:59:31.000Z,0.00
2018-04-23T02:00:31.467Z,0.00
2018-04-23T02:01:31.879Z,0.00
2018-04-23T02:02:32.308Z,0.00
2018-04-23T02:03:32.744Z,0.00
2018-04-23T02:04:33.176Z,0.00
2018-04-23T02:05:33.617Z,0.00
2018-04-23T02:06:34.064Z,0.00
2018-04-23T02:07:34.488Z,0.00
2018-04-23T02:08:34.930Z,0.00
2018-04-23T02:09:35.357Z,0.00
2018-04-23T02:10:35.793Z,0.00
2018-04-23T02:11:36.236Z,0.00
2018-04-23T02:12:36.672Z,0.00
2018-04-23T02:13:37.121Z,0.00
2018-04-23T02:14:37.542Z,0.00
2018-04-23T02:15:38.095Z,0.00
2018-04-23T02:16:38.423Z,0.00
2018-04-23T02:17:38.853Z,0.00
2018-04-23T02:18:39.293Z,0.00
2018-04-23T02:19:39.726Z,0.00
2018-04-23T02:20:40.163Z,0.00
2018-04-23T02:21:40.604Z,0.00
2018-04-23T02:22:41.038Z,0.00
2018-04-23T02:23:41.474Z,0.00
2018-04-23T02:24:41.909Z,0.00
2018-04-23T02:25:42.349Z,0.00
2018-04-23T02:26:42.794Z,0.00
2018-04-23T02:27:43.219Z,0.00
2018-04-23T02:28:43.668Z,0.00
2018-04-23T02:29:44.093Z,0.00
2018-04-23T02:30:44.529Z,0.00
2018-04-23T02:31:44.970Z,0.00
2018-04-23T02:32:45.404Z,0.00
2018-04-23T02:33:45.843Z,0.00
2018-04-23T02:34:46.273Z,0.00
2018-04-23T02:35:46.722Z,0.00
2018-04-23T02:36:47.159Z,0.00
2018-04-23T02:37:47.585Z,0.00
2018-04-23T02:38:48.027Z,0.00
2018-04-23T02:39:48.460Z,0.00
2018-04-23T02:40:48.897Z,0.00
2018-04-23T02:41:49.344Z,0.00
2018-04-23T02:42:49.770Z,0.00
2018-04-23T02:43:50.213Z,0.00
2018-04-23T02:44:50.649Z,0.00
2018-04-23T02:45:51.086Z,0.00
2018-04-23T02:46:51.528Z,0.00
2018-04-23T02:47:51.957Z,0.00
2018-04-23T02:48:52.394Z,0.00
2018-04-23T02:49:52.837Z,0.00
2018-04-23T02:50:53.380Z,0.00
2018-04-23T02:51:53.702Z,0.00
2018-04-23T02:52:54.140Z,0.00
2018-04-23T02:53:54.579Z,0.00
2018-04-23T02:54:55.010Z,0.00
2018-04-23T02:55:55.446Z,0.00
2018-04-23T02:56:55.896Z,0.00
2018-04-23T02:57:56.320Z,0.00
2018-04-23T02:58:56.760Z,0.00
2018-04-23T02:59:57.197Z,0.00
2018-04-23T03:00:57.629Z,0.00
2018-04-23T03:01:58.067Z,0.00
2018-04-23T03:02:58.514Z,0.00
2018-04-23T03:03:58.948Z,0.00
2018-04-23T03:04:59.375Z,0.00
2018-04-23T03:05:59.831Z,0.00
2018-04-23T03:07:00.249Z,0.00
2018-04-23T03:08:00.688Z,0.00
2018-04-23T03:09:01.117Z,0.00
2018-04-23T03:10:01.561Z,0.00
2018-04-23T03:11:01.999Z,0.00
2018-04-23T03:12:02.438Z,0.00
2018-04-23T03:13:02.866Z,0.00
2018-04-23T03:14:03.315Z,0.00
2018-04-23T03:15:03.743Z,0.00
2018-04-23T03:16:04.183Z,0.00
2018-04-23T03:17:04.617Z,0.00
2018-04-23T03:18:05.053Z,0.00
2018-04-23T03:19:05.496Z,0.00
2018-04-23T03:20:05.933Z,0.00
2018-04-23T03:21:06.364Z,0.00
2018-04-23T03:22:06.794Z,0.00
2018-04-23T03:23:07.234Z,0.00
2018-04-23T03:24:07.665Z,0.00
2018-04-23T03:25:08.110Z,0.00
2018-04-23T03:26:08.588Z,0.00
2018-04-23T03:27:08.981Z,0.00
2018-04-23T03:28:09.407Z,0.00
2018-04-23T03:29:09.852Z,0.00
2018-04-23T03:30:10.282Z,0.00
2018-04-23T03:31:10.725Z,0.00
2018-04-23T03:32:11.235Z,0.00
2018-04-23T03:33:11.593Z,0.00
2018-04-23T03:34:12.025Z,0.00
2018-04-23T03:35:12.505Z,0.00
2018-04-23T03:36:12.903Z,0.00
2018-04-23T03:37:13.442Z,0.00
2018-04-23T03:38:13.781Z,0.00
2018-04-23T03:39:14.204Z,0.00
2018-04-23T03:40:14.648Z,0.00
2018-04-23T03:41:15.082Z,0.00
2018-04-23T03:42:15.518Z,0.00
2018-04-23T03:43:15.956Z,0.00
2018-04-23T03:44:16.383Z,0.00
2018-04-23T03:45:16.832Z,0.00
2018-04-23T03:46:17.259Z,0.00
2018-04-23T03:47:17.697Z,0.00
2018-04-23T03:48:18.129Z,0.00
2018-04-23T03:49:18.562Z,5.63
2018-04-23T03:50:19.002Z,5.63
2018-04-23T03:51:19.445Z,5.63
2018-04-23T03:52:19.872Z,5.63
2018-04-23T03:53:20.305Z,5.63
2018-04-23T03:54:20.743Z,5.63
2018-04-23T03:55:21.182Z,5.63
2018-04-23T03:56:21.613Z,5.63
2018-04-23T03:57:22.051Z,11.25
2018-04-23T03:58:22.489Z,11.25
2018-04-23T03:59:22.919Z,11.25
2018-04-23T04:00:23.359Z,11.25
2018-04-23T04:01:23.857Z,11.25
2018-04-23T04:02:24.232Z,11.25
2018-04-23T04:03:24.666Z,16.88
2018-04-23T04:04:25.103Z,16.88
2018-04-23T04:05:25.536Z,16.88
2018-04-23T04:06:25.969Z,16.88
2018-04-23T04:07:26.406Z,16.88
2018-04-23T04:08:27.105Z,16.88
2018-04-23T04:09:27.270Z,22.50
2018-04-23T04:10:27.715Z,22.50
2018-04-23T04:11:28.149Z,22.50
2018-04-23T04:12:28.584Z,22.50
2018-04-23T04:13:29.021Z,28.13
2018-04-23T04:14:29.451Z,28.13
2018-04-23T04:15:29.889Z,28.13
2018-04-23T04:16:30.425Z,28.13
2018-04-23T04:17:30.757Z,28.13
2018-04-23T04:18:31.196Z,33.75
2018-04-23T04:19:31.631Z,33.75
2018-04-23T04:20:32.075Z,33.75
2018-04-23T04:21:32.506Z,33.75
2018-04-23T04:22:32.936Z,39.38
2018-04-23T04:23:33.372Z,39.38
2018-04-23T04:24:33.813Z,39.38
2018-04-23T04:25:34.235Z,39.38
2018-04-23T04:26:34.678Z,45.00
2018-04-23T04:27:35.119Z,45.00
2018-04-23T04:28:35.549Z,45.00
2018-04-23T04:29:35.991Z,50.63
2018-04-23T04:30:36.417Z,50.63
2018-04-23T04:31:36.861Z,50.63
2018-04-23T04:32:37.287Z,50.63
2018-04-23T04:33:37.732Z,56.25
2018-04-23T04:34:38.163Z,56.25
2018-04-23T04:35:38.673Z,61.88
2018-04-23T04:36:39.042Z,61.88
2018-04-23T04:37:39.468Z,67.50
2018-04-23T04:38:39.900Z,67.50
2018-04-23T04:39:40.338Z,67.50
2018-04-23T04:40:40.780Z,73.13
2018-04-23T04:41:41.236Z,73.13
2018-04-23T04:42:41.649Z,78.75
2018-04-23T04:43:42.125Z,78.75
2018-04-23T04:44:42.519Z,78.75
2018-04-23T04:45:42.953Z,84.38
2018-04-23T04:46:43.394Z,84.38
2018-04-23T04:47:43.821Z,84.38
2018-04-23T04:48:44.254Z,90.00
2018-04-23T04:49:44.717Z,90.00
2018-04-23T04:50:45.119Z,95.63
2018-04-23T04:51:45.565Z,95.63
2018-04-23T04:52:45.999Z,101.25
2018-04-23T04:53:46.427Z,101.25
2018-04-23T04:54:46.870Z,101.25
2018-04-23T04:55:47.301Z,106.88
2018-04-23T04:56:47.774Z,106.88
2018-04-23T04:57:48.171Z,106.88
2018-04-23T04:58:48.617Z,106.88
2018-04-23T04:59:49.042Z,112.50
2018-04-23T05:00:49.480Z,112.50
2018-04-23T05:01:49.912Z,112.50
2018-04-23T05:02:50.353Z,118.13
2018-04-23T05:03:50.806Z,118.13
2018-04-23T05:04:52.321Z,123.75
2018-04-23T05:05:51.663Z,129.38
2018-04-23T05:06:52.101Z,129.38
2018-04-23T05:07:52.533Z,135.00
2018-04-23T05:08:52.978Z,135.00
2018-04-23T05:09:53.398Z,140.63
2018-04-23T05:10:53.841Z,140.63
2018-04-23T05:11:54.353Z,146.25
2018-04-23T05:12:54.715Z,146.25
2018-04-23T05:13:55.144Z,146.25
2018-04-23T05:14:55.576Z,151.88
2018-04-23T05:15:56.018Z,146.25
2018-04-23T05:16:56.452Z,151.88
2018-04-23T05:17:56.888Z,151.88
2018-04-23T05:18:57.326Z,146.25
2018-04-23T05:19:57.760Z,151.88
2018-04-23T05:20:58.197Z,151.88
2018-04-23T05:21:58.635Z,151.88
2018-04-23T05:22:59.066Z,157.50
2018-04-23T05:23:59.527Z,163.13
2018-04-23T05:24:59.944Z,168.75
2018-04-23T05:26:00.388Z,180.00
2018-04-23T05:27:00.817Z,185.63
2018-04-23T05:28:01.249Z,191.25
2018-04-23T05:29:01.689Z,196.88
2018-04-23T05:30:02.148Z,202.50
2018-04-23T05:31:02.563Z,208.13
2018-04-23T05:32:03.007Z,208.13
2018-04-23T05:33:03.437Z,208.13
2018-04-23T05:34:03.872Z,208.13
2018-04-23T05:35:04.310Z,208.13
2018-04-23T05:36:04.747Z,213.75
2018-04-23T05:37:05.192Z,225.00
2018-04-23T05:38:05.622Z,236.25
2018-04-23T05:39:06.056Z,247.50
2018-04-23T05:40:06.500Z,247.50
2018-04-23T05:41:06.935Z,253.13
2018-04-23T05:42:07.393Z,253.13
2018-04-23T05:43:07.820Z,253.13
2018-04-23T05:44:08.245Z,247.50
2018-04-23T05:45:08.697Z,247.50
2018-04-23T05:46:09.126Z,247.50
2018-04-23T05:47:09.573Z,253.13
2018-04-23T05:48:09.995Z,253.13
2018-04-23T05:49:10.435Z,258.75
2018-04-23T05:50:10.879Z,258.75
2018-04-23T05:51:11.306Z,275.63
2018-04-23T05:52:11.745Z,281.25
2018-04-23T05:53:12.190Z,298.13
2018-04-23T05:54:12.635Z,309.38
2018-04-23T05:55:13.078Z,298.13
2018-04-23T05:56:13.503Z,270.00
2018-04-23T05:57:13.947Z,236.25
2018-04-23T05:58:14.377Z,225.00
2018-04-23T06:00:48.915Z,208.13
2018-04-23T06:01:49.418Z,213.75
2018-04-23T06:03:45.701Z,258.75
2018-04-23T06:07:58.463Z,343.13
2018-04-23T06:08:58.842Z,365.63
2018-04-23T06:11:07.197Z,421.88
2018-04-23T06:13:44.418Z,438.75
2018-04-23T06:18:46.353Z,309.38
2018-04-23T06:19:46.792Z,258.75
2018-04-23T06:21:54.030Z,264.38
2018-04-23T06:22:54.455Z,281.25
2018-04-23T06:23:54.892Z,292.50
2018-04-23T06:24:55.333Z,286.88
2018-04-23T06:25:55.775Z,275.63
2018-04-23T06:26:56.212Z,258.75
2018-04-23T06:27:56.659Z,247.50
2018-04-23T06:28:57.097Z,236.25
2018-04-23T06:29:57.538Z,225.00
2018-04-23T06:30:57.971Z,219.38
2018-04-23T06:31:58.418Z,208.13
2018-04-23T06:32:58.852Z,202.50
2018-04-23T06:33:59.302Z,196.88
2018-04-23T06:34:59.743Z,191.25
2018-04-23T06:37:36.380Z,168.75
2018-04-23T06:40:09.842Z,151.88
2018-04-23T06:41:10.275Z,146.25
2018-04-23T06:43:04.852Z,135.00
2018-04-23T06:44:05.284Z,135.00
2018-04-23T06:45:59.878Z,140.63
2018-04-23T06:47:00.321Z,135.00
2018-04-23T06:48:54.914Z,140.63
2018-04-23T06:49:55.347Z,140.63
2018-04-23T06:51:49.933Z,151.88
2018-04-23T06:52:50.354Z,157.50
2018-04-23T06:54:44.942Z,180.00
2018-04-23T06:55:45.375Z,202.50
2018-04-23T06:56:45.849Z,236.25
2018-04-23T06:57:46.269Z,258.75
2018-04-23T06:58:46.695Z,292.50
2018-04-23T06:59:47.135Z,315.00
2018-04-23T07:00:47.575Z,326.25
2018-04-23T07:01:48.012Z,315.00
2018-04-23T07:02:48.457Z,286.88
2018-04-23T07:03:48.887Z,253.13
2018-04-23T07:04:49.341Z,219.38
2018-04-23T07:05:49.767Z,202.50
2018-04-23T07:06:50.208Z,191.25
2018-04-23T07:07:50.652Z,185.63
2018-04-23T07:08:51.086Z,191.25
2018-04-23T07:09:51.524Z,196.88
2018-04-23T07:10:51.965Z,196.88
2018-04-23T07:11:52.416Z,191.25
2018-04-23T07:12:52.846Z,191.25
2018-04-23T07:13:53.287Z,202.50
2018-04-23T07:14:53.721Z,219.38
2018-04-23T07:15:54.171Z,247.50
2018-04-23T07:16:54.599Z,286.88
2018-04-23T07:17:55.143Z,354.38
2018-04-23T07:18:55.490Z,416.25
2018-04-23T07:19:55.934Z,427.50
2018-04-23T07:20:56.387Z,416.25
2018-04-23T07:21:56.814Z,405.00
2018-04-23T07:22:57.245Z,315.00
2018-04-23T07:23:57.717Z,253.13
2018-04-23T07:24:58.129Z,236.25
2018-04-23T07:25:58.566Z,241.88
2018-04-23T07:26:59.010Z,264.38
2018-04-23T07:27:59.444Z,281.25
2018-04-23T07:28:59.894Z,292.50
2018-04-23T07:30:00.329Z,320.63
2018-04-23T07:31:00.778Z,376.88
2018-04-23T07:32:01.210Z,433.13
2018-04-23T07:33:01.659Z,500.63
2018-04-23T07:34:02.096Z,562.50
2018-04-23T07:35:02.552Z,624.38
2018-04-23T07:36:02.981Z,922.50
2018-04-23T07:37:03.420Z,922.50
2018-04-23T07:38:03.858Z,714.38
2018-04-23T07:39:04.310Z,686.25
2018-04-23T07:40:04.744Z,708.75
2018-04-23T07:41:05.208Z,871.88
2018-04-23T07:42:05.637Z,568.13
2018-04-23T07:43:06.080Z,928.13
2018-04-23T07:44:06.527Z,2283.75
2018-04-23T07:45:06.970Z,2362.50
2018-04-23T07:46:07.421Z,2233.13
2018-04-23T07:47:07.861Z,2227.50
2018-04-23T07:48:08.317Z,2053.13
2018-04-23T07:49:08.761Z,2407.50
2018-04-23T07:50:09.210Z,2368.13
2018-04-23T07:51:09.660Z,2356.88
2018-04-23T07:52:10.122Z,2317.50
2018-04-23T07:53:10.561Z,1012.50
2018-04-23T07:54:11.081Z,1209.38
2018-04-23T07:55:11.467Z,1186.88
2018-04-23T07:56:11.920Z,2368.13
2018-04-23T07:57:12.375Z,2334.38
2018-04-23T07:58:12.834Z,2345.63
2018-04-23T07:59:13.277Z,2233.13
2018-04-23T08:00:13.737Z,2165.63
2018-04-23T08:01:14.187Z,2137.50
2018-04-23T08:02:14.644Z,1923.75
2018-04-23T08:03:15.100Z,2289.38
2018-04-23T08:04:15.554Z,2407.50
2018-04-23T08:05:16.017Z,2469.38
2018-04-23T08:06:16.470Z,2520.00
2018-04-23T08:07:16.923Z,2497.50
2018-04-23T08:08:17.386Z,2340.00
2018-04-23T08:09:17.841Z,2604.38
2018-04-23T08:10:18.302Z,2070.00
2018-04-23T08:11:18.758Z,2266.88
2018-04-23T08:12:19.304Z,2137.50
2018-04-23T08:13:19.678Z,1822.50
2018-04-23T08:14:20.133Z,2272.50
2018-04-23T08:15:20.599Z,2199.38
2018-04-23T08:16:21.059Z,2385.00
2018-04-23T08:17:21.526Z,2373.75
2018-04-23T08:18:21.991Z,2469.38
2018-04-23T08:19:22.444Z,2553.75
2018-04-23T08:20:22.903Z,2733.75
2018-04-23T08:21:23.371Z,2992.50
2018-04-23T08:22:23.830Z,3307.50
2018-04-23T08:23:24.289Z,2902.50
2018-04-23T08:24:24.764Z,2289.38
2018-04-23T08:25:25.226Z,2941.88
2018-04-23T08:26:25.685Z,2868.75
2018-04-23T08:27:26.139Z,2840.63
2018-04-23T08:28:26.614Z,1569.38
2018-04-23T08:29:27.070Z,1648.13
2018-04-23T08:30:27.542Z,1732.50
2018-04-23T08:31:28.004Z,1366.88
2018-04-23T08:32:28.460Z,1198.13
2018-04-23T08:33:28.932Z,1333.13
2018-04-23T08:34:29.386Z,1125.00
2018-04-23T08:35:29.852Z,973.13
2018-04-23T08:36:30.309Z,1029.38
2018-04-23T08:37:30.795Z,1175.63
2018-04-23T08:38:31.231Z,1035.00
2018-04-23T08:39:31.695Z,1074.38
2018-04-23T08:40:32.162Z,928.13
2018-04-23T08:41:32.611Z,939.38
2018-04-23T08:42:33.070Z,995.63
2018-04-23T08:43:33.531Z,1260.00
2018-04-23T08:44:33.996Z,1147.50
2018-04-23T08:45:34.451Z,1355.63
2018-04-23T08:46:34.904Z,866.25
2018-04-23T08:47:35.363Z,787.50
2018-04-23T08:48:35.814Z,815.63
2018-04-23T08:49:36.277Z,933.75
2018-04-23T08:50:36.724Z,1057.50
2018-04-23T08:51:37.178Z,967.50
2018-04-23T08:52:37.632Z,967.50
2018-04-23T08:53:38.088Z,1856.25
2018-04-23T08:54:38.545Z,990.00
2018-04-23T08:55:38.996Z,1051.88
2018-04-23T08:56:39.445Z,2368.13
2018-04-23T08:57:39.901Z,1164.38
2018-04-23T08:58:40.358Z,1963.13
2018-04-23T08:59:40.809Z,1845.00
2018-04-23T09:00:41.264Z,950.63
2018-04-23T09:01:41.721Z,832.50
2018-04-23T09:02:42.175Z,652.50
2018-04-23T09:03:42.623Z,523.13
2018-04-23T09:04:43.077Z,455.63
2018-04-23T09:05:43.534Z,399.38
2018-04-23T09:06:43.985Z,382.50
2018-04-23T09:07:44.437Z,382.50
2018-04-23T09:08:44.891Z,376.88
2018-04-23T09:09:45.346Z,376.88
2018-04-23T09:10:45.791Z,376.88
2018-04-23T09:11:46.323Z,393.75
2018-04-23T09:12:46.717Z,393.75
2018-04-23T09:13:47.142Z,382.50
2018-04-23T09:14:47.595Z,365.63
2018-04-23T09:15:48.050Z,371.25
2018-04-23T09:16:48.493Z,376.88
2018-04-23T09:17:49.000Z,382.50
2018-04-23T09:18:49.393Z,376.88
2018-04-23T09:19:49.843Z,376.88
2018-04-23T09:20:50.294Z,371.25
2018-04-23T09:21:50.734Z,371.25
2018-04-23T09:22:51.186Z,388.13
2018-04-23T09:23:51.634Z,450.00
2018-04-23T09:24:52.135Z,461.25
2018-04-23T09:25:52.530Z,523.13
2018-04-23T09:26:52.972Z,607.50
2018-04-23T09:27:53.416Z,613.13
2018-04-23T09:28:53.876Z,618.75
2018-04-23T09:29:54.306Z,618.75
2018-04-23T09:30:54.761Z,607.50
2018-04-23T09:31:55.207Z,618.75
2018-04-23T09:32:55.649Z,680.63
2018-04-23T09:33:56.098Z,714.38
2018-04-23T09:34:56.548Z,866.25
2018-04-23T09:35:56.982Z,1085.63
2018-04-23T09:36:57.443Z,1198.13
2018-04-23T09:37:57.872Z,1265.63
2018-04-23T09:38:58.340Z,855.00
2018-04-23T09:39:58.768Z,916.88
2018-04-23T09:40:59.268Z,849.38
2018-04-23T09:41:59.669Z,736.88
2018-04-23T09:43:00.117Z,663.75
2018-04-23T09:44:00.569Z,630.00
2018-04-23T09:45:01.039Z,607.50
2018-04-23T09:46:01.496Z,528.75
2018-04-23T09:47:01.892Z,450.00
2018-04-23T09:48:02.356Z,405.00
2018-04-23T09:49:02.792Z,371.25
2018-04-23T09:50:03.243Z,348.75
2018-04-23T09:51:03.685Z,326.25
2018-04-23T09:52:04.123Z,309.38
2018-04-23T09:53:04.579Z,292.50
2018-04-23T09:54:05.074Z,281.25
2018-04-23T09:55:05.463Z,258.75
2018-04-23T09:56:05.923Z,225.00
2018-04-23T09:57:06.358Z,196.88
2018-04-23T09:58:06.818Z,196.88
2018-04-23T09:59:07.246Z,208.13
2018-04-23T10:00:07.690Z,225.00
2018-04-23T10:01:08.129Z,241.88
2018-04-23T10:02:08.602Z,258.75
2018-04-23T10:03:09.014Z,275.63
2018-04-23T10:04:09.767Z,281.25
2018-04-23T10:05:09.904Z,286.88
2018-04-23T10:06:10.376Z,292.50
2018-04-23T10:07:10.786Z,298.13
2018-04-23T10:08:11.223Z,303.75
2018-04-23T10:09:11.669Z,303.75
2018-04-23T10:10:12.113Z,298.13
2018-04-23T10:11:12.548Z,286.88
2018-04-23T10:12:13.002Z,292.50
2018-04-23T10:13:13.429Z,286.88
2018-04-23T10:14:13.876Z,281.25
2018-04-23T10:15:14.311Z,281.25
2018-04-23T10:16:14.754Z,286.88
2018-04-23T10:17:15.197Z,286.88
2018-04-23T10:18:15.632Z,275.63
2018-04-23T10:19:16.072Z,264.38
2018-04-23T10:20:16.508Z,264.38
2018-04-23T10:21:16.975Z,275.63
2018-04-23T10:22:17.396Z,292.50
2018-04-23T10:23:17.841Z,309.38
2018-04-23T10:24:18.293Z,320.63
2018-04-23T10:25:18.712Z,331.88
2018-04-23T10:26:19.158Z,343.13
2018-04-23T10:27:19.590Z,360.00
2018-04-23T10:28:20.037Z,371.25
2018-04-23T10:29:20.479Z,376.88
2018-04-23T10:30:20.911Z,376.88
2018-04-23T10:31:21.400Z,376.88
2018-04-23T10:32:21.793Z,371.25
2018-04-23T10:33:22.230Z,354.38
2018-04-23T10:34:22.675Z,348.75
2018-04-23T10:35:23.108Z,337.50
2018-04-23T10:36:23.566Z,315.00
2018-04-23T10:37:23.993Z,286.88
2018-04-23T10:38:24.497Z,270.00
2018-04-23T10:39:24.888Z,281.25
2018-04-23T10:40:25.311Z,286.88
2018-04-23T10:41:25.759Z,292.50
2018-04-23T10:42:26.201Z,292.50
2018-04-23T10:43:26.639Z,315.00
2018-04-23T10:44:27.083Z,348.75
2018-04-23T10:45:27.560Z,382.50
2018-04-23T10:46:27.960Z,416.25
2018-04-23T10:47:28.396Z,450.00
2018-04-23T10:48:28.841Z,461.25
2018-04-23T10:49:29.288Z,461.25
2018-04-23T10:50:29.718Z,450.00
2018-04-23T10:51:30.172Z,444.38
2018-04-23T10:52:30.603Z,450.00
2018-04-23T10:53:31.047Z,461.25
2018-04-23T10:54:31.489Z,450.00
2018-04-23T10:55:31.924Z,433.13
2018-04-23T10:56:32.376Z,427.50
2018-04-23T10:57:32.844Z,438.75
2018-04-23T10:58:33.251Z,455.63
2018-04-23T10:59:33.702Z,461.25
2018-04-23T11:00:34.136Z,495.00
2018-04-23T11:01:34.587Z,540.00
2018-04-23T11:02:35.029Z,545.63
2018-04-23T11:03:35.473Z,534.38
2018-04-23T11:04:35.907Z,511.88
2018-04-23T11:05:36.366Z,523.13
2018-04-23T11:06:36.799Z,1755.00
2018-04-23T11:07:37.247Z,646.88
2018-04-23T11:08:37.681Z,630.00
2018-04-23T11:09:38.168Z,568.13
2018-04-23T11:10:38.592Z,562.50
2018-04-23T11:11:39.013Z,613.13
2018-04-23T11:12:39.466Z,663.75
2018-04-23T11:13:39.903Z,916.88
2018-04-23T11:14:40.351Z,3307.50
2018-04-23T11:15:40.784Z,1366.88
2018-04-23T11:16:41.233Z,1220.63
2018-04-23T11:17:41.699Z,832.50
2018-04-23T11:18:42.140Z,1755.00
2018-04-23T11:19:42.588Z,3076.88
2018-04-23T11:20:43.012Z,1901.25
2018-04-23T11:21:43.474Z,1389.38
2018-04-23T11:22:43.914Z,2908.13
2018-04-23T11:23:44.375Z,3560.63
2018-04-23T11:24:44.849Z,3442.50
2018-04-23T11:25:45.268Z,2362.50
2018-04-23T11:26:45.723Z,3425.63
2018-04-23T11:27:46.179Z,3408.75
2018-04-23T11:28:46.629Z,3403.13
2018-04-23T11:29:47.160Z,3313.13
2018-04-23T11:30:47.537Z,3116.25
2018-04-23T11:31:48.000Z,3133.13
2018-04-23T11:32:48.449Z,3031.88
2018-04-23T11:33:48.927Z,3088.13
2018-04-23T11:34:49.365Z,3065.63
2018-04-23T11:35:49.828Z,3200.63
2018-04-23T11:36:50.285Z,1951.88
2018-04-23T11:37:50.763Z,579.38
2018-04-23T11:38:51.198Z,534.38
2018-04-23T11:39:51.656Z,528.75
2018-04-23T11:40:52.118Z,540.00
2018-04-23T11:41:52.575Z,579.38
2018-04-23T11:42:53.025Z,590.63
2018-04-23T11:43:53.475Z,618.75
2018-04-23T11:44:53.960Z,556.88
2018-04-23T11:45:54.386Z,540.00
2018-04-23T11:46:54.848Z,500.63
2018-04-23T11:47:55.295Z,483.75
2018-04-23T11:48:55.744Z,568.13
2018-04-23T11:49:56.201Z,528.75
2018-04-23T11:50:56.662Z,511.88
2018-04-23T11:51:57.108Z,523.13
2018-04-23T11:52:57.550Z,483.75
2018-04-23T11:53:57.999Z,495.00
2018-04-23T11:54:58.456Z,478.13
2018-04-23T11:55:58.902Z,472.50
2018-04-23T11:56:59.352Z,545.63
2018-04-23T11:57:59.793Z,517.50
2018-04-23T11:59:00.244Z,500.63
2018-04-23T12:00:00.691Z,478.13
2018-04-23T12:01:01.139Z,517.50
2018-04-23T12:02:01.582Z,545.63
2018-04-23T12:03:02.030Z,545.63
2018-04-23T12:04:02.513Z,517.50
2018-04-23T12:05:02.935Z,483.75
2018-04-23T12:06:03.384Z,478.13
2018-04-23T12:07:03.822Z,455.63
2018-04-23T12:08:04.285Z,450.00
2018-04-23T12:09:04.711Z,433.13
2018-04-23T12:10:05.158Z,455.63
2018-04-23T12:11:05.675Z,506.25
2018-04-23T12:12:06.050Z,466.88
2018-04-23T12:13:06.493Z,433.13
2018-04-23T12:14:06.949Z,472.50
2018-04-23T12:15:07.388Z,466.88
2018-04-23T12:16:07.887Z,478.13
2018-04-23T12:17:08.277Z,455.63
2018-04-23T12:18:08.731Z,438.75
2018-04-23T12:19:09.173Z,427.50
2018-04-23T12:20:09.618Z,405.00
2018-04-23T12:21:10.069Z,405.00
2018-04-23T12:22:10.500Z,399.38
2018-04-23T12:23:10.957Z,416.25
2018-04-23T12:24:11.396Z,478.13
2018-04-23T12:25:11.844Z,478.13
2018-04-23T12:26:12.299Z,444.38
2018-04-23T12:27:12.848Z,376.88
2018-04-23T12:28:13.168Z,405.00
2018-04-23T12:29:13.663Z,461.25
2018-04-23T12:30:14.083Z,517.50
2018-04-23T12:31:14.504Z,528.75
2018-04-23T12:32:14.952Z,495.00
2018-04-23T12:33:15.399Z,461.25
2018-04-23T12:34:15.847Z,545.63
2018-04-23T12:35:16.286Z,466.88
2018-04-23T12:36:16.733Z,444.38
2018-04-23T12:37:17.172Z,421.88
2018-04-23T12:38:17.640Z,511.88
2018-04-23T12:39:18.082Z,528.75
2018-04-23T12:40:18.511Z,444.38
2018-04-23T12:41:18.974Z,455.63
2018-04-23T12:42:19.420Z,421.88
2018-04-23T12:43:19.854Z,399.38
2018-04-23T12:44:20.293Z,438.75
2018-04-23T12:45:20.728Z,461.25
2018-04-23T12:46:21.181Z,489.38
2018-04-23T12:47:21.619Z,472.50
2018-04-23T12:48:22.070Z,455.63
2018-04-23T12:49:22.522Z,466.88
2018-04-23T12:50:23.010Z,478.13
2018-04-23T12:51:23.435Z,489.38
2018-04-23T12:52:23.855Z,495.00
2018-04-23T12:53:24.294Z,495.00
2018-04-23T12:54:24.736Z,506.25
2018-04-23T12:55:25.189Z,523.13
2018-04-23T12:56:25.638Z,506.25
2018-04-23T12:57:26.071Z,472.50
2018-04-23T12:58:26.514Z,427.50
2018-04-23T12:59:26.966Z,393.75
2018-04-23T13:00:27.413Z,506.25
2018-04-23T13:01:27.858Z,489.38
2018-04-23T13:02:28.298Z,506.25
2018-04-23T13:03:28.745Z,466.88
2018-04-23T13:04:29.216Z,472.50
2018-04-23T13:05:29.629Z,517.50
2018-04-23T13:06:30.097Z,495.00
2018-04-23T13:07:30.529Z,416.25
2018-04-23T13:08:30.966Z,444.38
2018-04-23T13:09:31.417Z,523.13